Time;durP1;ratioP1;P1;durP2;ratioP2;P2;SDS_P1;SDS_P2;PMS_P1;PMS_P2;Temp;Humidity;BMP_temperature;BMP_pressure;BME280_temperature;BME280_humidity;BME280_pressure;Samples;Min_cycle;Max_cycle;Signal;HPM_P1;HPM_P2
2021/10/02 00:36:47;;;;;;;10.00;6.00;;;;;;;;;;5074590;28;20489;-72
2021/10/02 00:44:43;;;;;;;11.77;6.18;;;;;;;;;;5094163;28;20064;-71
2021/10/02 00:47:11;;;;;;;9.90;5.72;;;;;;;;;;5094304;28;20020;-70
2021/10/02 00:49:38;;;;;;;11.68;6.75;;;;;;;;;;5093889;28;20020;-71
2021/10/02 00:52:07;;;;;;;9.85;6.18;;;;;;;;;;5094094;28;20054;-71
2021/10/02 00:54:33;;;;;;;10.52;6.63;;;;;;;;;;5093725;28;20400;-71
2021/10/02 00:56:59;;;;;;;9.52;5.93;;;;;;;;;;5092725;28;20043;-71
2021/10/02 00:59:29;;;;;;;10.02;5.60;;;;;;;;;;5093993;28;20453;-71
2021/10/02 01:02:09;;;;;;;8.55;5.97;;;;;;;;;;5093796;28;20029;-71
2021/10/02 01:04:51;;;;;;;9.02;5.72;;;;;;;;;;5094227;28;20103;-71
2021/10/02 01:07:32;;;;;;;9.75;6.13;;;;;;;;;;5092551;28;20024;-70
2021/10/02 01:09:59;;;;;;;10.95;5.55;;;;;;;;;;5093372;28;20020;-70
2021/10/02 01:12:25;;;;;;;10.82;5.50;;;;;;;;;;5094118;28;20411;-71
2021/10/02 01:15:03;;;;;;;9.32;5.60;;;;;;;;;;5093749;28;20384;-71
2021/10/02 01:17:34;;;;;;;11.80;6.30;;;;;;;;;;5093098;28;20023;-70
2021/10/02 01:20:11;;;;;;;8.40;5.28;;;;;;;;;;5094264;28;20020;-70
2021/10/02 01:22:56;;;;;;;7.95;5.05;;;;;;;;;;5093464;28;20036;-71
2021/10/02 01:25:38;;;;;;;11.80;5.97;;;;;;;;;;5093611;28;20028;-70
2021/10/02 01:28:05;;;;;;;16.80;7.40;;;;;;;;;;5093664;28;20492;-71
2021/10/02 01:36:11;;;;;;;12.82;6.78;;;;;;;;;;5093527;28;20024;-71
2021/10/02 01:47:12;;;;;;;8.88;5.93;;;;;;;;;;5093654;28;20078;-71
2021/10/02 01:49:43;;;;;;;11.02;6.10;;;;;;;;;;5093689;28;20418;-71
2021/10/02 01:52:10;;;;;;;9.95;5.70;;;;;;;;;;5091602;28;20028;-70
2021/10/02 01:54:36;;;;;;;11.43;5.82;;;;;;;;;;5093259;28;20385;-72
2021/10/02 01:57:04;;;;;;;11.10;6.60;;;;;;;;;;5092225;28;20404;-72
2021/10/02 01:59:31;;;;;;;10.93;6.90;;;;;;;;;;5092842;28;20039;-71
2021/10/02 02:01:58;;;;;;;10.18;6.28;;;;;;;;;;5093152;28;20036;-71
2021/10/02 02:04:25;;;;;;;12.60;6.95;;;;;;;;;;5093190;28;20024;-71
2021/10/02 02:06:52;;;;;;;10.07;5.43;;;;;;;;;;5092742;28;20477;-71
2021/10/02 02:09:19;;;;;;;13.85;6.75;;;;;;;;;;5093380;28;20024;-71
2021/10/02 02:11:46;;;;;;;10.43;6.97;;;;;;;;;;5092680;28;20043;-71
2021/10/02 02:14:14;;;;;;;10.40;7.40;;;;;;;;;;5093122;28;20473;-71
2021/10/02 02:16:41;;;;;;;10.65;6.40;;;;;;;;;;5093042;28;20099;-71
2021/10/02 02:19:07;;;;;;;13.20;6.68;;;;;;;;;;5092666;28;20021;-70
2021/10/02 02:21:33;;;;;;;11.60;6.47;;;;;;;;;;5093186;28;20412;-71
2021/10/02 02:24:00;;;;;;;11.30;6.00;;;;;;;;;;5093117;28;20032;-71
2021/10/02 02:26:27;;;;;;;9.98;5.93;;;;;;;;;;5092819;28;20023;-71
2021/10/02 02:28:53;;;;;;;11.10;6.32;;;;;;;;;;5094551;28;20023;-70
2021/10/02 02:31:20;;;;;;;12.63;7.07;;;;;;;;;;5096834;28;20024;-71
2021/10/02 02:33:46;;;;;;;11.88;6.55;;;;;;;;;;5096419;28;20024;-71
2021/10/02 02:36:12;;;;;;;12.52;6.85;;;;;;;;;;5096659;28;20017;-71
2021/10/02 02:38:38;;;;;;;9.57;6.03;;;;;;;;;;5097011;28;20503;-71
2021/10/02 02:41:05;;;;;;;11.65;6.57;;;;;;;;;;5094987;28;20394;-71
2021/10/02 02:43:34;;;;;;;9.90;6.25;;;;;;;;;;5096551;28;20043;-71
2021/10/02 02:46:22;;;;;;;15.88;6.57;;;;;;;;;;5096639;28;20024;-71
2021/10/02 02:49:07;;;;;;;7.85;5.10;;;;;;;;;;5096217;28;20499;-71
2021/10/02 02:51:36;;;;;;;9.60;5.28;;;;;;;;;;5095140;28;20056;-71
2021/10/02 02:54:09;;;;;;;7.88;5.30;;;;;;;;;;5096094;28;20034;-71
2021/10/02 02:56:40;;;;;;;10.27;5.60;;;;;;;;;;5096555;28;20024;-72
2021/10/02 02:59:10;;;;;;;10.32;5.82;;;;;;;;;;5096669;28;20024;-71
2021/10/02 03:01:39;;;;;;;10.48;6.22;;;;;;;;;;5095772;28;20025;-72
2021/10/02 03:04:06;;;;;;;11.15;6.45;;;;;;;;;;5096297;28;20031;-71
2021/10/02 03:06:33;;;;;;;11.52;6.20;;;;;;;;;;5094918;28;20058;-70
2021/10/02 03:09:00;;;;;;;11.50;6.32;;;;;;;;;;5095676;28;20035;-70
2021/10/02 03:11:27;;;;;;;10.98;6.43;;;;;;;;;;5094845;28;20537;-70
2021/10/02 03:13:56;;;;;;;8.85;5.43;;;;;;;;;;5096208;28;20036;-70
2021/10/02 03:16:24;;;;;;;10.10;6.40;;;;;;;;;;5095547;28;20031;-70
2021/10/02 03:18:54;;;;;;;10.15;7.00;;;;;;;;;;5095989;28;20025;-70
2021/10/02 03:21:22;;;;;;;10.93;5.93;;;;;;;;;;5095908;28;20031;-70
2021/10/02 03:23:48;;;;;;;8.82;5.25;;;;;;;;;;5095450;28;20476;-72
2021/10/02 03:26:15;;;;;;;9.75;5.85;;;;;;;;;;5096095;28;20031;-72
2021/10/02 03:28:42;;;;;;;10.10;5.65;;;;;;;;;;5095734;28;20024;-72
2021/10/02 03:31:09;;;;;;;11.70;6.20;;;;;;;;;;5094057;28;20051;-71
2021/10/02 03:33:36;;;;;;;9.15;5.72;;;;;;;;;;5095621;28;20027;-72
2021/10/02 03:36:02;;;;;;;11.45;6.93;;;;;;;;;;5095168;28;20024;-72
2021/10/02 03:38:28;;;;;;;12.65;6.72;;;;;;;;;;5095859;28;20017;-72
2021/10/02 03:41:01;;;;;;;11.00;6.93;;;;;;;;;;5095451;28;20028;-72
2021/10/02 03:43:30;;;;;;;13.60;6.23;;;;;;;;;;5094897;28;20048;-72
2021/10/02 03:45:57;;;;;;;11.27;6.82;;;;;;;;;;5094042;28;20020;-72
2021/10/02 03:48:23;;;;;;;13.45;7.53;;;;;;;;;;5094017;28;20395;-72
2021/10/02 03:50:49;;;;;;;11.20;7.13;;;;;;;;;;5094908;28;20027;-72
2021/10/02 03:53:15;;;;;;;14.00;6.97;;;;;;;;;;5094008;28;20027;-71
2021/10/02 03:55:42;;;;;;;12.32;8.10;;;;;;;;;;5095450;28;20035;-70
2021/10/02 03:58:08;;;;;;;11.93;7.07;;;;;;;;;;5095182;28;20024;-72
2021/10/02 04:00:34;;;;;;;11.45;7.15;;;;;;;;;;5093786;28;20520;-70
2021/10/02 04:03:00;;;;;;;11.50;6.63;;;;;;;;;;5094992;28;20034;-71
2021/10/02 04:05:27;;;;;;;10.95;6.95;;;;;;;;;;5093320;28;20050;-71
2021/10/02 04:07:53;;;;;;;10.25;6.10;;;;;;;;;;5094913;28;20034;-71
2021/10/02 04:10:19;;;;;;;9.23;6.13;;;;;;;;;;5093595;28;20049;-70
2021/10/02 04:12:45;;;;;;;14.63;7.07;;;;;;;;;;5094523;28;20035;-71
2021/10/02 04:15:12;;;;;;;11.20;6.22;;;;;;;;;;5094800;28;20141;-72
2021/10/02 04:17:38;;;;;;;8.93;5.53;;;;;;;;;;5095279;28;20024;-72
2021/10/02 04:20:05;;;;;;;11.40;6.43;;;;;;;;;;5094437;28;20020;-72
2021/10/02 04:22:32;;;;;;;11.38;6.70;;;;;;;;;;5093304;28;20028;-72
2021/10/02 04:24:58;;;;;;;10.82;7.15;;;;;;;;;;5094629;28;20016;-72
2021/10/02 04:27:24;;;;;;;11.68;6.18;;;;;;;;;;5094193;28;20051;-71
2021/10/02 04:29:50;;;;;;;10.73;6.60;;;;;;;;;;5094747;28;20571;-71
2021/10/02 04:32:16;;;;;;;12.90;7.40;;;;;;;;;;5094231;28;20423;-70
2021/10/02 04:34:43;;;;;;;14.35;7.53;;;;;;;;;;5094430;28;20028;-72
2021/10/02 04:37:09;;;;;;;10.52;6.35;;;;;;;;;;5094526;28;20028;-71
2021/10/02 04:39:35;;;;;;;12.50;7.15;;;;;;;;;;5093954;28;20031;-71
2021/10/02 04:42:01;;;;;;;11.68;7.03;;;;;;;;;;5094133;28;20056;-71
2021/10/02 04:44:27;;;;;;;10.50;6.97;;;;;;;;;;5094223;28;20023;-71
2021/10/02 04:46:54;;;;;;;10.75;6.25;;;;;;;;;;5093854;28;20111;-72
2021/10/02 04:49:20;;;;;;;13.30;7.85;;;;;;;;;;5092897;28;20472;-70
2021/10/02 04:51:46;;;;;;;12.57;6.95;;;;;;;;;;5093615;28;20027;-71
2021/10/02 04:54:12;;;;;;;10.75;6.22;;;;;;;;;;5093822;28;20027;-71
2021/10/02 04:56:39;;;;;;;11.77;6.78;;;;;;;;;;5094093;28;20020;-71
2021/10/02 04:59:05;;;;;;;12.30;7.10;;;;;;;;;;5093992;28;20074;-71
2021/10/02 05:01:31;;;;;;;12.00;7.18;;;;;;;;;;5093508;28;20054;-71
2021/10/02 05:03:58;;;;;;;10.45;6.43;;;;;;;;;;5094111;28;20038;-71
2021/10/02 05:06:25;;;;;;;15.57;7.68;;;;;;;;;;5093972;28;20099;-70
2021/10/02 05:08:51;;;;;;;16.15;6.88;;;;;;;;;;5093639;28;20538;-71
2021/10/02 05:11:17;;;;;;;10.60;6.70;;;;;;;;;;5093829;28;20438;-71
2021/10/02 05:13:43;;;;;;;11.13;6.97;;;;;;;;;;5092506;28;20024;-71
2021/10/02 05:16:09;;;;;;;12.30;6.82;;;;;;;;;;5093382;28;20028;-70
2021/10/02 05:18:36;;;;;;;15.23;9.60;;;;;;;;;;5093633;28;20487;-70
2021/10/02 05:21:02;;;;;;;15.05;7.78;;;;;;;;;;5092371;28;20024;-71
2021/10/02 05:23:28;;;;;;;13.25;6.75;;;;;;;;;;5093183;28;20107;-71
2021/10/02 05:25:54;;;;;;;12.88;6.40;;;;;;;;;;5093631;28;20020;-71
2021/10/02 05:28:21;;;;;;;10.82;6.75;;;;;;;;;;5093552;28;20388;-71
2021/10/02 05:30:47;;;;;;;12.25;7.30;;;;;;;;;;5093131;28;20020;-71
2021/10/02 05:33:13;;;;;;;20.90;10.10;;;;;;;;;;5093545;28;20020;-72
2021/10/02 05:35:40;;;;;;;16.85;10.07;;;;;;;;;;5093210;28;20054;-73
2021/10/02 05:38:06;;;;;;;17.13;9.82;;;;;;;;;;5093465;28;20031;-71
2021/10/02 05:40:32;;;;;;;13.40;8.40;;;;;;;;;;5093567;28;20099;-72
2021/10/02 05:43:02;;;;;;;13.05;8.25;;;;;;;;;;5092895;28;20519;-72
2021/10/02 05:45:28;;;;;;;13.27;8.85;;;;;;;;;;5093476;28;20357;-73
2021/10/02 05:47:54;;;;;;;14.45;8.30;;;;;;;;;;5093460;28;20020;-72
2021/10/02 05:50:20;;;;;;;15.90;10.35;;;;;;;;;;5093030;28;20099;-72
2021/10/02 05:52:46;;;;;;;21.50;8.60;;;;;;;;;;5093328;28;20020;-73
2021/10/02 05:55:13;;;;;;;18.67;9.70;;;;;;;;;;5093489;28;20388;-72
2021/10/02 05:57:39;;;;;;;15.60;8.70;;;;;;;;;;5093290;28;20027;-73
2021/10/02 06:00:07;;;;;;;18.80;10.20;;;;;;;;;;5093300;28;20031;-72
2021/10/02 06:02:33;;;;;;;18.13;9.60;;;;;;;;;;5093239;28;20036;-72
2021/10/02 06:04:59;;;;;;;22.13;10.23;;;;;;;;;;5096330;28;20024;-74
2021/10/02 06:07:26;;;;;;;16.75;9.10;;;;;;;;;;5097311;28;20031;-72
2021/10/02 06:09:52;;;;;;;18.02;8.07;;;;;;;;;;5097239;28;20028;-71
2021/10/02 06:12:18;;;;;;;17.33;9.65;;;;;;;;;;5096824;28;20028;-71
2021/10/02 06:14:44;;;;;;;15.07;8.55;;;;;;;;;;5097659;28;20317;-71
2021/10/02 06:17:11;;;;;;;14.82;9.25;;;;;;;;;;5095824;28;20115;-71
2021/10/02 06:19:37;;;;;;;15.48;7.47;;;;;;;;;;5096709;28;20465;-71
2021/10/02 06:22:04;;;;;;;17.83;8.93;;;;;;;;;;5096988;28;20032;-72
2021/10/02 06:24:30;;;;;;;15.52;9.18;;;;;;;;;;5095801;28;20115;-73
2021/10/02 06:26:56;;;;;;;18.02;9.88;;;;;;;;;;5096621;28;20430;-72
2021/10/02 06:29:23;;;;;;;19.15;10.90;;;;;;;;;;5096867;28;20020;-71
2021/10/02 06:31:49;;;;;;;20.35;9.90;;;;;;;;;;5095621;28;20064;-71
2021/10/02 06:34:16;;;;;;;16.52;9.23;;;;;;;;;;5096733;28;20110;-71
2021/10/02 06:36:43;;;;;;;13.60;8.25;;;;;;;;;;5097052;28;20056;-74
2021/10/02 06:39:09;;;;;;;14.63;8.27;;;;;;;;;;5096666;28;20031;-73
2021/10/02 06:41:35;;;;;;;12.45;8.02;;;;;;;;;;5095116;28;20516;-71
2021/10/02 06:44:01;;;;;;;12.90;7.82;;;;;;;;;;5096721;28;20057;-71
2021/10/02 06:46:28;;;;;;;11.43;7.35;;;;;;;;;;5096484;28;20107;-71
2021/10/02 06:48:54;;;;;;;17.13;8.35;;;;;;;;;;5096538;28;20031;-71
2021/10/02 06:51:20;;;;;;;15.57;8.63;;;;;;;;;;5096731;28;20028;-72
2021/10/02 06:53:46;;;;;;;15.30;9.63;;;;;;;;;;5096135;28;20495;-72
2021/10/02 06:56:12;;;;;;;15.55;6.95;;;;;;;;;;5096454;28;20020;-72
2021/10/02 07:00:04;;;;;;;14.88;9.23;;;;;;;;;;5111637;27;20875;-73
2021/10/02 07:04:04;;;;;;;14.27;8.75;;;;;;;;;;5132108;27;20676;-73
2021/10/02 07:06:30;;;;;;;16.70;8.52;;;;;;;;;;5111364;28;20048;-72
2021/10/02 07:09:31;;;;;;;14.98;7.40;;;;;;;;;;5111827;27;20512;-71
2021/10/02 07:11:58;;;;;;;12.25;7.93;;;;;;;;;;5111242;28;20027;-71
2021/10/02 07:14:24;;;;;;;13.18;8.20;;;;;;;;;;5111129;28;20476;-71
2021/10/02 07:19:15;;;;;;;16.30;7.82;;;;;;;;;;5111618;27;20397;-72
2021/10/02 07:21:42;;;;;;;11.93;7.43;;;;;;;;;;5108669;28;20047;-72
2021/10/02 07:24:09;;;;;;;12.13;7.05;;;;;;;;;;5111169;28;20027;-72
2021/10/02 07:26:35;;;;;;;13.20;8.23;;;;;;;;;;5111188;28;20024;-72
2021/10/02 07:29:01;;;;;;;13.27;7.50;;;;;;;;;;5109426;28;20499;-72
2021/10/02 07:32:37;;;;;;;11.52;6.90;;;;;;;;;;5111697;27;20316;-71
2021/10/02 07:35:03;;;;;;;15.35;8.52;;;;;;;;;;5111300;28;20058;-71
2021/10/02 07:37:29;;;;;;;10.25;6.88;;;;;;;;;;5110750;28;20076;-73
2021/10/02 07:41:16;;;;;;;12.60;5.15;;;;;;;;;;5111352;27;20396;-71
2021/10/02 07:43:43;;;;;;;11.15;4.30;;;;;;;;;;5110874;28;20058;-72
2021/10/02 07:46:11;;;;;;;10.05;4.32;;;;;;;;;;5111207;28;20485;-70
2021/10/02 07:51:52;;;;;;;13.68;5.50;;;;;;;;;;5111593;27;20651;-72
2021/10/02 07:55:08;;;;;;;18.75;6.32;;;;;;;;;;5071146;28;20423;-72
2021/10/02 07:58:53;;;;;;;11.63;5.22;;;;;;;;;;5111429;27;20745;-72
2021/10/02 08:01:20;;;;;;;15.02;6.38;;;;;;;;;;5109926;28;20028;-72
2021/10/02 08:03:46;;;;;;;7.88;4.43;;;;;;;;;;5110823;28;20426;-72
2021/10/02 08:06:54;;;;;;;8.35;4.70;;;;;;;;;;5132067;27;20309;-72
2021/10/02 08:09:21;;;;;;;8.88;4.20;;;;;;;;;;5093001;28;20039;-73
2021/10/02 08:11:47;;;;;;;9.85;5.13;;;;;;;;;;5092542;28;20023;-73
2021/10/02 08:16:48;;;;;;;8.32;3.80;;;;;;;;;;5031107;28;20390;-71
2021/10/02 08:19:16;;;;;;;8.23;3.85;;;;;;;;;;5030453;28;20486;-71
2021/10/02 08:22:43;;;;;;;6.38;3.97;;;;;;;;;;5111510;27;20310;-72
2021/10/02 08:25:47;;;;;;;8.05;4.07;;;;;;;;;;5111071;27;20318;-71
2021/10/02 08:28:14;;;;;;;8.35;4.18;;;;;;;;;;5111220;28;20472;-72
2021/10/02 08:31:22;;;;;;;7.97;4.00;;;;;;;;;;5070817;28;20501;-73
2021/10/02 08:35:42;;;;;;;7.43;4.25;;;;;;;;;;5111958;27;20419;-74
2021/10/02 08:38:09;;;;;;;7.07;3.90;;;;;;;;;;5111334;28;20098;-73
2021/10/02 08:40:35;;;;;;;9.23;4.18;;;;;;;;;;5126598;28;20028;-71
2021/10/02 08:46:10;;;;;;;8.38;3.80;;;;;;;;;;5111342;27;20513;-72
2021/10/02 08:48:37;;;;;;;5.72;3.60;;;;;;;;;;5109964;28;20441;-73
2021/10/02 08:51:05;;;;;;;5.72;3.30;;;;;;;;;;5111147;28;20027;-72
2021/10/02 08:53:33;;;;;;;8.57;3.83;;;;;;;;;;5110767;28;20024;-73
2021/10/02 08:57:16;;;;;;;5.65;3.33;;;;;;;;;;5132253;27;20310;-72
2021/10/02 08:59:42;;;;;;;7.93;3.95;;;;;;;;;;5110803;28;20036;-73
2021/10/02 09:05:03;;;;;;;7.28;3.67;;;;;;;;;;5070697;28;20411;-71
2021/10/02 09:07:30;;;;;;;8.27;3.97;;;;;;;;;;5070269;28;20028;-73
2021/10/02 09:09:56;;;;;;;7.85;3.72;;;;;;;;;;5070656;28;20553;-72
2021/10/02 09:12:23;;;;;;;8.52;3.60;;;;;;;;;;5070597;28;20100;-72
2021/10/02 09:15:32;;;;;;;7.82;3.88;;;;;;;;;;5111074;27;20457;-72
2021/10/02 09:19:39;;;;;;;6.00;3.28;;;;;;;;;;5111600;27;20393;-73
2021/10/02 09:22:06;;;;;;;5.88;3.42;;;;;;;;;;5111088;28;20391;-73
2021/10/02 09:28:58;;;;;;;11.02;4.07;;;;;;;;;;5111115;27;20438;-72
2021/10/02 09:31:25;;;;;;;6.68;3.95;;;;;;;;;;5109877;28;20073;-72
2021/10/02 09:33:52;;;;;;;9.02;4.40;;;;;;;;;;5111176;28;20020;-73
2021/10/02 09:36:21;;;;;;;8.88;4.00;;;;;;;;;;5110797;28;20020;-72
2021/10/02 09:38:52;;;;;;;5.68;3.45;;;;;;;;;;5111023;28;20024;-72
2021/10/02 09:41:18;;;;;;;7.60;3.95;;;;;;;;;;5109820;28;20067;-73
2021/10/02 09:43:48;;;;;;;6.38;3.55;;;;;;;;;;5110674;28;20043;-73
2021/10/02 09:47:56;;;;;;;9.73;4.32;;;;;;;;;;5111692;27;20310;-72
2021/10/02 09:50:24;;;;;;;7.88;3.80;;;;;;;;;;5110920;28;20472;-74
2021/10/02 09:52:54;;;;;;;7.90;4.55;;;;;;;;;;5111305;28;20028;-73
2021/10/02 09:55:25;;;;;;;7.97;4.20;;;;;;;;;;5111181;28;20437;-72
2021/10/02 09:59:24;;;;;;;7.68;4.13;;;;;;;;;;5070888;28;20461;-74
2021/10/02 10:01:51;;;;;;;6.70;4.10;;;;;;;;;;5070768;28;20028;-72
2021/10/02 10:04:37;;;;;;;8.57;4.15;;;;;;;;;;5070422;28;20108;-72
2021/10/02 10:07:07;;;;;;;8.02;4.45;;;;;;;;;;5070422;28;20029;-72
2021/10/02 10:10:38;;;;;;;6.20;3.50;;;;;;;;;;5111148;27;20408;-72
2021/10/02 10:14:24;;;;;;;12.93;4.38;;;;;;;;;;5111675;27;20109;-72
2021/10/02 10:18:38;;;;;;;7.80;4.18;;;;;;;;;;5111171;27;20846;-73
2021/10/02 10:21:08;;;;;;;9.63;4.38;;;;;;;;;;5111171;28;20503;-74
2021/10/02 10:23:45;;;;;;;7.82;4.25;;;;;;;;;;5111168;28;20024;-73
2021/10/02 10:26:16;;;;;;;8.70;3.72;;;;;;;;;;5109440;28;20049;-73
2021/10/02 10:28:43;;;;;;;7.05;3.47;;;;;;;;;;5109926;28;20102;-73
2021/10/02 10:31:11;;;;;;;8.93;5.00;;;;;;;;;;5110710;28;20023;-74
2021/10/02 10:33:39;;;;;;;8.70;4.45;;;;;;;;;;5112187;28;20073;-73
2021/10/02 10:36:05;;;;;;;7.63;4.57;;;;;;;;;;5111458;28;20023;-72
2021/10/02 10:38:35;;;;;;;7.82;4.65;;;;;;;;;;5110755;28;20032;-73
2021/10/02 10:41:02;;;;;;;13.45;4.60;;;;;;;;;;5109663;28;20073;-72
2021/10/02 10:43:28;;;;;;;7.00;4.50;;;;;;;;;;5109490;28;20032;-73
2021/10/02 10:45:55;;;;;;;8.38;4.60;;;;;;;;;;5110364;28;20476;-73
2021/10/02 10:48:21;;;;;;;7.07;4.13;;;;;;;;;;5109540;28;20023;-72
2021/10/02 10:52:06;;;;;;;7.90;4.20;;;;;;;;;;5111571;27;20494;-71
2021/10/02 10:56:12;;;;;;;9.13;5.03;;;;;;;;;;5111500;27;20389;-72
2021/10/02 10:58:39;;;;;;;8.85;4.45;;;;;;;;;;5109979;28;20120;-73
2021/10/02 11:01:07;;;;;;;7.30;4.00;;;;;;;;;;5110745;28;20081;-72
2021/10/02 11:03:46;;;;;;;7.18;4.03;;;;;;;;;;5111145;28;20024;-72
2021/10/02 11:06:16;;;;;;;7.80;4.07;;;;;;;;;;5110713;28;20385;-72
2021/10/02 11:09:01;;;;;;;6.78;3.38;;;;;;;;;;5111046;28;20024;-73
2021/10/02 11:11:49;;;;;;;6.75;4.03;;;;;;;;;;5110939;28;20031;-74
2021/10/02 11:14:15;;;;;;;7.82;3.97;;;;;;;;;;5096354;28;20032;-73
2021/10/02 11:17:51;;;;;;;6.57;4.50;;;;;;;;;;5173269;27;20310;-72
2021/10/02 11:20:17;;;;;;;7.68;4.40;;;;;;;;;;5152076;27;20038;-74
2021/10/02 11:23:08;;;;;;;8.93;4.00;;;;;;;;;;5133717;27;20019;-72
2021/10/02 11:25:35;;;;;;;9.25;3.95;;;;;;;;;;5152563;27;20029;-72
2021/10/02 11:28:19;;;;;;;9.98;3.80;;;;;;;;;;5151858;27;20014;-72
2021/10/02 11:30:47;;;;;;;6.88;3.80;;;;;;;;;;5152201;27;20027;-72
2021/10/02 11:33:28;;;;;;;6.97;3.83;;;;;;;;;;5152148;27;20026;-73
2021/10/02 11:35:55;;;;;;;7.18;4.18;;;;;;;;;;5151630;27;20102;-73
2021/10/02 11:38:38;;;;;;;9.63;4.35;;;;;;;;;;5152168;27;20026;-74
2021/10/02 11:41:23;;;;;;;6.60;3.80;;;;;;;;;;5152087;27;20054;-73
2021/10/02 11:43:56;;;;;;;6.25;3.55;;;;;;;;;;5133490;27;20027;-73
2021/10/02 11:46:25;;;;;;;7.05;3.45;;;;;;;;;;5152040;27;20098;-74
2021/10/02 11:48:52;;;;;;;6.50;3.33;;;;;;;;;;5133663;27;20047;-73
2021/10/02 11:51:23;;;;;;;6.38;3.83;;;;;;;;;;5152135;27;20096;-73
2021/10/02 11:53:49;;;;;;;9.80;3.85;;;;;;;;;;5151652;27;20095;-73
2021/10/02 11:56:19;;;;;;;7.25;3.75;;;;;;;;;;5151352;27;20079;-74
2021/10/02 11:58:46;;;;;;;5.95;3.45;;;;;;;;;;5151846;27;20531;-74
2021/10/02 12:01:16;;;;;;;7.20;3.75;;;;;;;;;;5151661;27;20096;-73
2021/10/02 12:03:42;;;;;;;6.65;3.58;;;;;;;;;;5132702;27;20023;-72
2021/10/02 12:06:08;;;;;;;7.38;3.78;;;;;;;;;;5151532;27;20026;-73
2021/10/02 12:08:34;;;;;;;5.88;3.47;;;;;;;;;;5151533;27;20046;-73
2021/10/02 12:11:01;;;;;;;7.30;3.80;;;;;;;;;;5150519;27;20099;-72
2021/10/02 12:13:30;;;;;;;5.80;3.05;;;;;;;;;;5150643;27;20019;-73
2021/10/02 12:16:07;;;;;;;5.75;3.55;;;;;;;;;;5151029;27;20043;-72
2021/10/02 12:18:45;;;;;;;7.10;3.28;;;;;;;;;;5150923;27;20019;-73
2021/10/02 12:21:12;;;;;;;7.90;3.85;;;;;;;;;;5151242;27;20019;-72
2021/10/02 12:23:58;;;;;;;6.28;3.75;;;;;;;;;;5150951;27;20409;-72
2021/10/02 12:26:24;;;;;;;6.45;3.55;;;;;;;;;;5151278;27;20047;-72
2021/10/02 12:29:04;;;;;;;7.60;3.38;;;;;;;;;;5139354;27;20019;-73
2021/10/02 12:31:41;;;;;;;7.50;3.55;;;;;;;;;;5118535;27;20395;-73
2021/10/02 12:34:19;;;;;;;6.22;3.40;;;;;;;;;;5137160;27;20019;-74
2021/10/02 12:36:48;;;;;;;7.85;3.50;;;;;;;;;;5118657;27;20031;-72
2021/10/02 12:39:14;;;;;;;8.02;3.42;;;;;;;;;;5136868;27;20073;-72
2021/10/02 12:41:42;;;;;;;8.25;3.80;;;;;;;;;;5118605;27;20380;-73
2021/10/02 12:44:15;;;;;;;6.63;3.35;;;;;;;;;;5136838;27;20019;-73
2021/10/02 12:46:41;;;;;;;7.05;3.03;;;;;;;;;;5136635;27;20068;-73
2021/10/02 12:49:08;;;;;;;6.55;3.60;;;;;;;;;;5136913;27;20509;-73
2021/10/02 12:51:34;;;;;;;10.10;3.22;;;;;;;;;;5136900;27;20023;-73
2021/10/02 12:54:00;;;;;;;6.55;3.50;;;;;;;;;;5118036;27;20028;-73
2021/10/02 12:56:26;;;;;;;6.13;3.35;;;;;;;;;;5118214;27;20027;-74
2021/10/02 12:58:53;;;;;;;9.48;3.47;;;;;;;;;;5117838;27;20083;-73
2021/10/02 13:01:19;;;;;;;8.90;3.70;;;;;;;;;;5136883;27;20023;-73
2021/10/02 13:03:45;;;;;;;6.00;3.15;;;;;;;;;;5136690;27;20027;-73
2021/10/02 13:06:11;;;;;;;11.27;4.60;;;;;;;;;;5136162;27;20015;-72
2021/10/02 13:08:37;;;;;;;7.63;4.45;;;;;;;;;;5136497;27;20084;-73
2021/10/02 13:11:04;;;;;;;9.65;5.10;;;;;;;;;;5136495;27;20042;-73
2021/10/02 13:13:30;;;;;;;5.93;2.80;;;;;;;;;;5117625;27;20030;-73
2021/10/02 13:15:57;;;;;;;6.57;4.15;;;;;;;;;;5136024;27;20046;-72
2021/10/02 13:18:25;;;;;;;13.32;3.88;;;;;;;;;;5117860;27;20463;-72
2021/10/02 13:20:57;;;;;;;7.50;3.60;;;;;;;;;;5117505;27;20115;-73
2021/10/02 13:23:36;;;;;;;4.40;2.83;;;;;;;;;;5117850;27;20028;-73
2021/10/02 13:26:06;;;;;;;6.85;3.58;;;;;;;;;;5136508;27;20096;-72
2021/10/02 13:28:32;;;;;;;6.78;2.80;;;;;;;;;;5135789;27;20027;-72
2021/10/02 13:31:07;;;;;;;6.28;3.08;;;;;;;;;;5136157;27;20080;-73
2021/10/02 13:33:40;;;;;;;5.45;2.80;;;;;;;;;;5136377;27;20023;-73
2021/10/02 13:36:06;;;;;;;;;;;;;;;;;;5135828;27;20547;-73
2021/10/02 13:38:37;;;;;;;5.47;2.80;;;;;;;;;;5135831;27;19935;-73
2021/10/02 13:41:08;;;;;;;8.00;3.30;;;;;;;;;;5134760;27;20498;-74
2021/10/02 13:43:34;;;;;;;6.90;3.72;;;;;;;;;;5136098;27;20023;-72
2021/10/02 13:46:01;;;;;;;4.57;2.70;;;;;;;;;;5135674;27;20050;-73
2021/10/02 13:48:29;;;;;;;5.53;2.70;;;;;;;;;;5135383;27;20020;-73
2021/10/02 13:50:56;;;;;;;5.05;2.95;;;;;;;;;;5136078;27;20027;-74
2021/10/02 13:53:23;;;;;;;7.32;3.65;;;;;;;;;;5117490;27;20106;-74
2021/10/02 13:55:50;;;;;;;7.57;4.40;;;;;;;;;;5117048;27;20042;-74
2021/10/02 13:58:16;;;;;;;5.07;3.17;;;;;;;;;;5136075;27;20348;-75
2021/10/02 14:00:43;;;;;;;6.50;3.30;;;;;;;;;;5135738;27;20023;-75
2021/10/02 14:03:09;;;;;;;6.65;3.63;;;;;;;;;;5135095;27;20027;-74
2021/10/02 14:05:37;;;;;;;5.43;3.30;;;;;;;;;;5135582;27;20030;-73
2021/10/02 14:08:04;;;;;;;5.72;3.35;;;;;;;;;;5135536;27;20023;-72
2021/10/02 14:10:31;;;;;;;6.80;3.05;;;;;;;;;;5134969;27;20023;-73
2021/10/02 14:12:58;;;;;;;5.63;3.25;;;;;;;;;;5135345;27;20027;-73
2021/10/02 14:15:24;;;;;;;5.88;3.72;;;;;;;;;;5116684;27;20034;-73
2021/10/02 14:17:50;;;;;;;7.22;3.30;;;;;;;;;;5134800;27;20076;-73
2021/10/02 14:20:17;;;;;;;6.55;3.17;;;;;;;;;;5135108;27;20103;-73
2021/10/02 14:22:43;;;;;;;6.20;3.10;;;;;;;;;;5135372;27;20493;-73
2021/10/02 14:25:10;;;;;;;4.68;2.47;;;;;;;;;;5116283;27;20518;-72
2021/10/02 14:27:37;;;;;;;6.38;3.28;;;;;;;;;;5134962;27;20031;-72
2021/10/02 14:30:07;;;;;;;7.13;3.30;;;;;;;;;;5116559;27;20390;-73
2021/10/02 14:32:33;;;;;;;6.05;3.30;;;;;;;;;;5116454;27;20479;-73
2021/10/02 14:34:59;;;;;;;5.75;3.13;;;;;;;;;;5134913;27;20078;-72
2021/10/02 14:37:26;;;;;;;7.65;3.40;;;;;;;;;;5134322;27;20091;-73
2021/10/02 14:39:52;;;;;;;6.60;4.05;;;;;;;;;;5116439;27;20495;-73
2021/10/02 14:42:21;;;;;;;5.43;3.25;;;;;;;;;;5134774;27;20069;-73
2021/10/02 14:44:48;;;;;;;5.47;3.28;;;;;;;;;;5134351;27;20015;-73
2021/10/02 14:47:14;;;;;;;6.32;3.17;;;;;;;;;;5134642;27;20023;-72
2021/10/02 14:49:40;;;;;;;6.43;3.80;;;;;;;;;;5134618;27;20027;-73
2021/10/02 14:52:07;;;;;;;8.85;4.75;;;;;;;;;;5134366;27;20367;-73
2021/10/02 14:54:34;;;;;;;7.88;4.40;;;;;;;;;;5116104;27;20026;-73
2021/10/02 14:57:01;;;;;;;5.28;3.65;;;;;;;;;;5134415;27;20595;-73
2021/10/02 14:59:28;;;;;;;5.35;3.20;;;;;;;;;;5134090;27;20030;-73
2021/10/02 15:01:54;;;;;;;6.15;3.38;;;;;;;;;;5134405;27;20030;-73
2021/10/02 15:04:21;;;;;;;5.53;2.70;;;;;;;;;;5134486;27;20031;-73
2021/10/02 15:06:48;;;;;;;7.05;3.10;;;;;;;;;;5115658;27;20027;-73
2021/10/02 15:09:14;;;;;;;5.95;2.80;;;;;;;;;;5134346;27;20425;-73
2021/10/02 15:11:44;;;;;;;8.57;4.85;;;;;;;;;;5134302;27;20031;-73
2021/10/02 15:14:11;;;;;;;6.38;3.30;;;;;;;;;;5115326;28;20026;-73
2021/10/02 15:16:37;;;;;;;5.43;3.45;;;;;;;;;;5133987;28;20050;-72
2021/10/02 15:19:04;;;;;;;4.78;3.03;;;;;;;;;;5116005;28;20357;-72
2021/10/02 15:21:35;;;;;;;6.57;3.40;;;;;;;;;;5133848;28;20098;-73
2021/10/02 15:24:04;;;;;;;6.72;3.30;;;;;;;;;;5115769;28;20102;-72
2021/10/02 15:26:31;;;;;;;5.07;2.60;;;;;;;;;;5133743;28;20364;-72
2021/10/02 15:28:59;;;;;;;8.55;3.22;;;;;;;;;;5134308;28;20379;-72
2021/10/02 15:31:27;;;;;;;5.82;3.47;;;;;;;;;;5134631;28;20503;-72
2021/10/02 15:33:56;;;;;;;9.00;3.22;;;;;;;;;;5133856;28;20512;-72
2021/10/02 15:36:23;;;;;;;5.63;3.35;;;;;;;;;;5133963;28;20032;-73
2021/10/02 15:38:49;;;;;;;6.25;3.72;;;;;;;;;;5115546;28;20483;-72
2021/10/02 15:41:15;;;;;;;7.68;4.57;;;;;;;;;;5115233;28;20027;-72
2021/10/02 15:43:41;;;;;;;9.82;5.65;;;;;;;;;;5133968;28;20019;-72
2021/10/02 15:46:10;;;;;;;13.23;6.38;;;;;;;;;;5115539;28;20061;-71
2021/10/02 15:48:38;;;;;;;10.85;5.57;;;;;;;;;;5133573;28;20030;-72
2021/10/02 15:51:05;;;;;;;11.95;5.93;;;;;;;;;;5115566;28;20480;-72
2021/10/02 15:53:32;;;;;;;10.30;5.57;;;;;;;;;;5133941;28;20379;-72
2021/10/02 15:56:04;;;;;;;12.18;7.50;;;;;;;;;;5115151;28;20023;-72
2021/10/02 15:58:43;;;;;;;12.43;6.40;;;;;;;;;;5134608;28;20080;-72
2021/10/02 16:01:14;;;;;;;10.90;5.53;;;;;;;;;;5133941;28;20143;-72
2021/10/02 16:04:15;;;;;;;10.90;5.63;;;;;;;;;;5135842;27;20050;-72
2021/10/02 16:06:46;;;;;;;14.40;6.30;;;;;;;;;;5034606;28;20045;-72
2021/10/02 16:09:12;;;;;;;11.82;6.28;;;;;;;;;;5119656;27;20430;-71
2021/10/02 16:14:46;;;;;;;12.80;7.55;;;;;;;;;;5113657;27;20153;-73
2021/10/02 16:17:13;;;;;;;12.48;7.90;;;;;;;;;;5092488;28;20399;-71
2021/10/02 16:19:39;;;;;;;18.05;7.68;;;;;;;;;;5092744;28;20111;-71
2021/10/02 16:22:06;;;;;;;13.07;9.57;;;;;;;;;;5111018;28;20498;-71
2021/10/02 16:27:07;;;;;;;58.42;34.67;;;;;;;;;;5111308;27;20397;-71
2021/10/02 16:30:39;;;;;;;33.15;21.80;;;;;;;;;;5070281;28;20434;-72